This is the latest recevied weather packets stored in our database for station/object SQ6ELQ-11. If no packets are shown the sender has not sent any weather packets the latest 1 day(s).
| Time | Temp. | Humidity | Pressure | Rain* | Wind** | Luminosity | Snow |
|---|---|---|---|---|---|---|---|
| 1777992816 | 25° C | 24% | 1007.2 hPa | 0 mm | 0 m/s | - | - |
| 1777991697 | 25° C | 26% | 1007.2 hPa | 0 mm | 0 m/s | - | - |
| 1777990619 | 23.33° C | 25% | 1007.5 hPa | 0 mm | 0 m/s | - | - |
| 1777989531 | 25° C | 26% | 1007.5 hPa | 0 mm | 0 m/s | - | - |
| 1777988455 | 23.89° C | 31% | 1007.6 hPa | 0 mm | 0 m/s | - | - |
| 1777987440 | 22.22° C | 34% | 1007.9 hPa | 0 mm | 0 m/s | - | - |
| 1777986386 | 22.22° C | 33% | 1007.9 hPa | 0 mm | 0 m/s | - | - |
| 1777985371 | 21.67° C | 32% | 1007.9 hPa | 0 mm | 0 m/s | - | - |
| 1777984360 | 23.33° C | 28% | 1007.9 hPa | 0 mm | 0 m/s | - | - |
| 1777983260 | 25.56° C | 31% | 1007.8 hPa | 0 mm | 0 m/s | - | - |
| 1777982246 | 23.89° C | 32% | 1007.9 hPa | 0 mm | 0 m/s | - | - |
| 1777981160 | 22.78° C | 33% | 1008.1 hPa | 0 mm | 0 m/s | - | - |
| 1777980156 | 23.33° C | 31% | 1008 hPa | 0 mm | 0 m/s | - | - |
| 1777979106 | 23.89° C | 26% | 1008.3 hPa | 0 mm | 0 m/s | - | - |
| 1777977981 | 22.78° C | 28% | 1008.2 hPa | 0 mm | 0 m/s | - | - |
| 1777976851 | 21.67° C | 29% | 1008.4 hPa | 0 mm | 0 m/s | - | - |
| 1777975661 | 22.22° C | 31% | 1008.4 hPa | 0 mm | 0 m/s | - | - |
| 1777974591 | 21.67° C | 31% | 1008.6 hPa | 0 mm | 0 m/s | - | - |
| 1777973530 | 21.11° C | 32% | 1008.6 hPa | 0 mm | 0 m/s | - | - |
| 1777972486 | 20.56° C | 33% | 1008.7 hPa | 0 mm | 0 m/s | - | - |
| 1777971476 | 19.44° C | 34% | 1008.9 hPa | 0 mm | 0 m/s | - | - |
| 1777970371 | 20° C | 35% | 1009 hPa | 0 mm | 0 m/s | - | - |
| 1777969301 | 19.44° C | 36% | 1009.2 hPa | 0 mm | 0 m/s | - | - |
| 1777968251 | 18.33° C | 39% | 1009.5 hPa | 0 mm | 0 m/s | - | - |
| 1777967176 | 17.78° C | 42% | 1009.7 hPa | 0 mm | 0 m/s | - | - |
* Rain latest hour (hover to see other rain measurements)
** Current wind speed in m/s (hover to see current wind gust speed)